createdAt,value
2017-08-30T00:07:51.379Z,0
2017-08-30T00:08:53.662Z,0
2017-08-30T00:09:57.886Z,0
2017-08-30T00:11:03.758Z,0
2017-08-30T00:12:14.769Z,0
2017-08-30T00:13:22.982Z,0
2017-08-30T00:14:30.557Z,0
2017-08-30T00:15:48.737Z,0
2017-08-30T00:18:05.022Z,0
2017-08-30T00:23:34.718Z,0
2017-08-30T00:24:38.158Z,0
2017-08-30T00:25:54.957Z,0
2017-08-30T00:29:08.226Z,0
2017-08-30T00:30:22.618Z,0
2017-08-30T00:31:07.465Z,0
2017-08-30T00:31:47.930Z,0
2017-08-30T00:32:28.240Z,0
2017-08-30T00:33:08.628Z,0
2017-08-30T00:33:49.060Z,0
2017-08-30T00:34:29.499Z,0
2017-08-30T00:35:09.948Z,0
2017-08-30T00:35:50.310Z,0
2017-08-30T00:36:30.742Z,0
2017-08-30T00:37:11.203Z,0
2017-08-30T00:37:51.496Z,0
2017-08-30T00:38:31.961Z,0
2017-08-30T00:39:12.427Z,0
2017-08-30T00:39:52.839Z,0
2017-08-30T00:40:33.309Z,0
2017-08-30T00:41:13.764Z,0
2017-08-30T00:41:54.126Z,0
2017-08-30T00:42:34.541Z,0
2017-08-30T00:43:14.940Z,0
2017-08-30T00:43:55.362Z,0
2017-08-30T00:44:35.810Z,0
2017-08-30T00:45:16.121Z,0
2017-08-30T00:45:56.656Z,0
2017-08-30T00:46:37.052Z,0
2017-08-30T00:47:17.516Z,0
2017-08-30T00:47:57.836Z,0
2017-08-30T00:48:38.216Z,0
2017-08-30T00:49:18.691Z,0
2017-08-30T00:49:59.016Z,0
2017-08-30T00:50:39.483Z,0
2017-08-30T00:51:19.921Z,0
2017-08-30T00:52:00.322Z,0
2017-08-30T00:52:41.343Z,0
2017-08-30T00:53:21.217Z,0
2017-08-30T00:54:01.745Z,0
2017-08-30T00:54:42.193Z,0
2017-08-30T00:55:22.583Z,0
2017-08-30T00:56:02.943Z,0
2017-08-30T00:56:43.500Z,0
2017-08-30T00:57:23.838Z,0
2017-08-30T00:58:04.313Z,0
2017-08-30T00:58:44.685Z,0
2017-08-30T00:59:25.249Z,0
2017-08-30T01:00:05.637Z,0
2017-08-30T01:00:46.132Z,0
2017-08-30T01:01:26.511Z,0
2017-08-30T01:02:06.944Z,0
2017-08-30T01:02:47.374Z,0
2017-08-30T01:03:27.756Z,0
2017-08-30T01:04:08.256Z,0
2017-08-30T01:04:48.647Z,0
2017-08-30T01:05:29.189Z,0
2017-08-30T01:06:09.517Z,0
2017-08-30T01:06:49.958Z,0
2017-08-30T01:07:30.341Z,0
2017-08-30T01:08:10.694Z,0
2017-08-30T01:08:51.207Z,0
2017-08-30T01:09:31.547Z,0
2017-08-30T01:10:12.020Z,0
2017-08-30T01:10:52.501Z,0
2017-08-30T01:11:32.846Z,0
2017-08-30T01:12:13.241Z,0
2017-08-30T01:12:53.687Z,0
2017-08-30T01:13:34.068Z,0
2017-08-30T01:14:14.505Z,0
2017-08-30T01:14:54.885Z,0
2017-08-30T01:15:35.254Z,0
2017-08-30T01:16:15.701Z,0
2017-08-30T01:16:56.076Z,0
2017-08-30T01:17:36.550Z,0
2017-08-30T01:18:16.976Z,0
2017-08-30T01:18:57.371Z,0
2017-08-30T01:19:37.780Z,0
2017-08-30T01:20:18.225Z,0
2017-08-30T01:20:58.601Z,0
2017-08-30T01:21:39.081Z,0
2017-08-30T01:22:19.450Z,0
2017-08-30T01:22:59.853Z,0
2017-08-30T01:23:40.334Z,0
2017-08-30T01:24:20.696Z,0
2017-08-30T01:25:00.987Z,0
2017-08-30T01:25:41.435Z,0
2017-08-30T01:26:21.942Z,0
2017-08-30T01:27:02.386Z,0
2017-08-30T01:27:42.818Z,0
2017-08-30T01:28:23.201Z,0
2017-08-30T01:29:03.680Z,0
2017-08-30T01:29:44.066Z,0
2017-08-30T01:30:24.469Z,0
2017-08-30T01:31:04.962Z,0
2017-08-30T01:31:45.246Z,0
2017-08-30T01:32:25.711Z,0
2017-08-30T01:33:06.115Z,0
2017-08-30T01:33:46.538Z,0
2017-08-30T01:34:26.895Z,0
2017-08-30T01:35:07.259Z,0
2017-08-30T01:35:47.681Z,0
2017-08-30T01:36:28.096Z,0
2017-08-30T01:37:08.489Z,0
2017-08-30T01:37:48.879Z,0
2017-08-30T01:38:29.292Z,0
2017-08-30T01:39:09.683Z,0
2017-08-30T01:39:50.285Z,0
2017-08-30T01:40:30.733Z,0
2017-08-30T01:41:11.138Z,0
2017-08-30T01:41:51.531Z,0
2017-08-30T01:42:32.015Z,0
2017-08-30T01:43:12.359Z,0
2017-08-30T01:43:52.786Z,0
2017-08-30T01:44:33.163Z,0
2017-08-30T01:45:13.642Z,0
2017-08-30T01:45:54.045Z,0
2017-08-30T01:46:34.488Z,0
2017-08-30T01:47:14.881Z,0
2017-08-30T01:47:55.284Z,0
2017-08-30T01:48:35.597Z,0
2017-08-30T01:49:16.104Z,0
2017-08-30T01:49:56.426Z,0
2017-08-30T01:50:36.971Z,0
2017-08-30T01:51:17.336Z,0
2017-08-30T01:51:57.749Z,0
2017-08-30T01:52:38.169Z,0
2017-08-30T01:53:18.528Z,0
2017-08-30T01:53:58.925Z,0
2017-08-30T01:54:39.334Z,0
2017-08-30T01:55:19.756Z,0
2017-08-30T01:56:00.174Z,0
2017-08-30T01:56:40.562Z,0
2017-08-30T01:57:20.924Z,0
2017-08-30T01:58:01.359Z,0
2017-08-30T01:58:41.720Z,0
2017-08-30T01:59:22.259Z,0
2017-08-30T02:00:02.609Z,0
2017-08-30T02:00:43.035Z,0
2017-08-30T02:01:23.447Z,0
2017-08-30T02:02:03.998Z,0
2017-08-30T02:02:44.452Z,0
2017-08-30T02:03:24.859Z,0
2017-08-30T02:04:05.372Z,0
2017-08-30T02:04:45.841Z,0
2017-08-30T02:05:26.182Z,0
2017-08-30T02:06:06.690Z,0
2017-08-30T02:06:47.040Z,0
2017-08-30T02:07:27.522Z,0
2017-08-30T02:08:07.893Z,0
2017-08-30T02:08:48.332Z,0
2017-08-30T02:09:28.739Z,0
2017-08-30T02:10:09.153Z,0
2017-08-30T02:10:49.577Z,0
2017-08-30T02:11:29.956Z,0
2017-08-30T02:12:10.368Z,0
2017-08-30T02:12:50.746Z,0
2017-08-30T02:13:31.190Z,0
2017-08-30T02:14:11.589Z,0
2017-08-30T02:14:51.939Z,0
2017-08-30T02:15:32.315Z,0
2017-08-30T02:16:12.763Z,0
2017-08-30T02:16:53.235Z,0
2017-08-30T02:17:33.674Z,0
2017-08-30T02:18:14.143Z,0
2017-08-30T02:18:54.518Z,0
2017-08-30T02:19:34.981Z,0
2017-08-30T02:20:15.472Z,0
2017-08-30T02:20:55.821Z,0
2017-08-30T02:21:36.221Z,0
2017-08-30T02:22:16.712Z,0
2017-08-30T02:22:57.166Z,0
2017-08-30T02:23:37.556Z,0
2017-08-30T02:24:17.973Z,0
2017-08-30T02:24:58.375Z,0
2017-08-30T02:25:38.807Z,0
2017-08-30T02:26:19.205Z,0
2017-08-30T02:26:59.650Z,0
2017-08-30T02:27:40.056Z,0
2017-08-30T02:28:20.518Z,0
2017-08-30T02:29:00.997Z,0
2017-08-30T02:29:41.447Z,0
2017-08-30T02:30:21.804Z,0
2017-08-30T02:31:02.291Z,0
2017-08-30T02:31:42.761Z,0
2017-08-30T02:32:23.092Z,0
2017-08-30T02:33:03.538Z,0
2017-08-30T02:33:43.929Z,0
2017-08-30T02:34:24.320Z,0
2017-08-30T02:35:04.740Z,0
2017-08-30T02:35:45.186Z,0
2017-08-30T02:36:25.541Z,0
2017-08-30T02:37:05.982Z,0
2017-08-30T02:37:46.380Z,0
2017-08-30T02:38:26.778Z,0
2017-08-30T02:39:07.191Z,0
2017-08-30T02:39:47.559Z,0
2017-08-30T02:40:27.962Z,0
2017-08-30T02:41:08.327Z,0
2017-08-30T02:41:48.763Z,0
2017-08-30T02:42:29.154Z,0
2017-08-30T02:43:09.585Z,0
2017-08-30T02:43:49.958Z,0
2017-08-30T02:44:30.382Z,0
2017-08-30T02:45:10.730Z,0
2017-08-30T02:45:51.167Z,0
2017-08-30T02:46:31.562Z,0
2017-08-30T02:47:11.973Z,0
2017-08-30T02:47:52.326Z,0
2017-08-30T02:48:32.763Z,0
2017-08-30T02:49:13.179Z,0
2017-08-30T02:49:53.586Z,0
2017-08-30T02:50:34.008Z,0
2017-08-30T02:51:14.401Z,0
2017-08-30T02:51:54.822Z,0
2017-08-30T02:52:35.315Z,0
2017-08-30T02:53:15.767Z,0
2017-08-30T02:53:56.157Z,0
2017-08-30T02:54:36.590Z,0
2017-08-30T02:55:16.943Z,0
2017-08-30T02:55:57.361Z,0
2017-08-30T02:56:37.808Z,0
2017-08-30T02:57:18.241Z,0
2017-08-30T02:57:58.668Z,0
2017-08-30T02:58:39.033Z,0
2017-08-30T02:59:19.576Z,0
2017-08-30T03:00:00.144Z,0
2017-08-30T03:00:40.511Z,0
2017-08-30T03:01:20.927Z,0
2017-08-30T03:02:01.350Z,0
2017-08-30T03:02:41.774Z,0
2017-08-30T03:03:22.132Z,0
2017-08-30T03:04:02.520Z,0
2017-08-30T03:04:42.861Z,0
2017-08-30T03:05:23.333Z,0
2017-08-30T03:06:03.707Z,0
2017-08-30T03:06:44.100Z,0
2017-08-30T03:07:24.626Z,0
2017-08-30T03:08:05.134Z,0
2017-08-30T03:08:45.451Z,0
2017-08-30T03:09:25.839Z,0
2017-08-30T03:10:06.366Z,0
2017-08-30T03:10:46.713Z,0
2017-08-30T03:11:27.132Z,0
2017-08-30T03:12:07.556Z,0
2017-08-30T03:12:47.896Z,0
2017-08-30T03:13:28.339Z,0
2017-08-30T03:14:08.729Z,0
2017-08-30T03:14:49.118Z,0
2017-08-30T03:15:29.558Z,0
2017-08-30T03:16:10.018Z,0
2017-08-30T03:16:50.407Z,0
2017-08-30T03:17:30.782Z,0
2017-08-30T03:18:11.222Z,0
2017-08-30T03:18:51.602Z,0
2017-08-30T03:19:32.072Z,0
2017-08-30T03:20:12.449Z,0
2017-08-30T03:20:52.959Z,0
2017-08-30T03:21:33.289Z,0
2017-08-30T03:22:13.771Z,0
2017-08-30T03:22:54.149Z,0
2017-08-30T03:23:34.508Z,0
2017-08-30T03:24:14.941Z,0
2017-08-30T03:24:55.458Z,0
2017-08-30T03:25:35.848Z,0
2017-08-30T03:26:16.244Z,0
2017-08-30T03:26:56.685Z,0
2017-08-30T03:27:37.117Z,0
2017-08-30T03:28:17.468Z,0
2017-08-30T03:28:57.961Z,0
2017-08-30T03:29:38.291Z,0
2017-08-30T03:30:18.855Z,0
2017-08-30T03:30:59.184Z,0
2017-08-30T03:31:39.687Z,0
2017-08-30T03:32:20.022Z,0
2017-08-30T03:33:00.360Z,0
2017-08-30T03:33:40.825Z,0
2017-08-30T03:34:21.222Z,0
2017-08-30T03:35:01.605Z,0
2017-08-30T03:35:42.013Z,0
2017-08-30T03:36:22.475Z,0
2017-08-30T03:37:02.867Z,0
2017-08-30T03:37:43.334Z,0
2017-08-30T03:38:23.742Z,0
2017-08-30T03:39:04.224Z,0
2017-08-30T03:39:44.668Z,0
2017-08-30T03:40:25.042Z,0
2017-08-30T03:41:05.391Z,0
2017-08-30T03:41:45.799Z,0
2017-08-30T03:42:26.261Z,0
2017-08-30T03:43:06.669Z,0
2017-08-30T03:43:47.063Z,0
2017-08-30T03:44:27.459Z,0
2017-08-30T03:45:07.762Z,0
2017-08-30T03:45:48.229Z,0
2017-08-30T03:46:28.605Z,0
2017-08-30T03:47:09.012Z,0
2017-08-30T03:47:49.401Z,0
2017-08-30T03:48:29.838Z,0
2017-08-30T03:49:10.216Z,0
2017-08-30T03:49:50.646Z,0
2017-08-30T03:50:31.048Z,0
2017-08-30T03:51:11.504Z,0
2017-08-30T03:51:51.878Z,0
2017-08-30T03:52:32.251Z,0
2017-08-30T03:53:12.743Z,0
2017-08-30T03:53:53.168Z,0
2017-08-30T03:54:33.493Z,0
2017-08-30T03:55:14.410Z,0
2017-08-30T03:55:54.412Z,0
2017-08-30T03:56:34.779Z,0
2017-08-30T03:57:15.245Z,0
2017-08-30T03:57:55.568Z,0
2017-08-30T03:58:36.048Z,0
2017-08-30T03:59:16.446Z,0
2017-08-30T03:59:56.781Z,0
2017-08-30T04:00:37.223Z,0
2017-08-30T04:01:17.627Z,0
2017-08-30T04:01:58.041Z,0
2017-08-30T04:02:38.441Z,0
2017-08-30T04:03:18.868Z,0
2017-08-30T04:03:59.249Z,0
2017-08-30T04:04:39.699Z,0
2017-08-30T04:05:20.123Z,0
2017-08-30T04:06:00.518Z,0
2017-08-30T04:06:40.909Z,0
2017-08-30T04:07:21.406Z,0
2017-08-30T04:08:01.849Z,0
2017-08-30T04:08:42.368Z,0
2017-08-30T04:09:22.737Z,0
2017-08-30T04:10:03.105Z,0
2017-08-30T04:10:43.526Z,0
2017-08-30T04:11:24.022Z,0
2017-08-30T04:12:04.327Z,4
2017-08-30T04:12:44.784Z,4
2017-08-30T04:13:25.214Z,0
2017-08-30T04:14:05.586Z,0
2017-08-30T04:14:46.022Z,0
2017-08-30T04:15:26.386Z,0
2017-08-30T04:16:07.419Z,4
2017-08-30T04:16:47.278Z,4
2017-08-30T04:17:27.732Z,0
2017-08-30T04:18:08.135Z,4
2017-08-30T04:18:48.648Z,4
2017-08-30T04:19:29.024Z,8
2017-08-30T04:20:09.446Z,4
2017-08-30T04:20:49.839Z,8
2017-08-30T04:21:30.301Z,12
2017-08-30T04:22:10.627Z,12
2017-08-30T04:22:51.107Z,12
2017-08-30T04:23:31.529Z,12
2017-08-30T04:24:11.883Z,16
2017-08-30T04:24:52.308Z,20
2017-08-30T04:25:32.748Z,20
2017-08-30T04:26:13.171Z,24
2017-08-30T04:26:53.521Z,28
2017-08-30T04:27:33.964Z,32
2017-08-30T04:28:14.354Z,32
2017-08-30T04:28:54.698Z,36
2017-08-30T04:29:35.206Z,40
2017-08-30T04:30:18.920Z,44
2017-08-30T04:30:59.484Z,48
2017-08-30T04:31:39.813Z,52
2017-08-30T04:32:20.215Z,56
2017-08-30T04:33:00.670Z,60
2017-08-30T04:33:41.007Z,64
2017-08-30T04:34:21.525Z,64
2017-08-30T04:35:01.907Z,68
2017-08-30T04:35:42.319Z,64
2017-08-30T04:36:22.709Z,60
2017-08-30T04:37:03.106Z,60
2017-08-30T04:37:43.595Z,60
2017-08-30T04:38:23.964Z,56
2017-08-30T04:39:04.445Z,56
2017-08-30T04:39:44.806Z,56
2017-08-30T04:40:25.279Z,52
2017-08-30T04:41:05.716Z,52
2017-08-30T04:41:46.079Z,52
2017-08-30T04:42:26.539Z,56
2017-08-30T04:43:06.985Z,60
2017-08-30T04:43:47.410Z,64
2017-08-30T04:44:27.800Z,68
2017-08-30T04:45:08.176Z,68
2017-08-30T04:45:48.570Z,76
2017-08-30T04:46:29.012Z,84
2017-08-30T04:47:09.366Z,88
2017-08-30T04:47:49.832Z,92
2017-08-30T04:48:30.200Z,96
2017-08-30T04:49:10.591Z,104
2017-08-30T04:49:51.001Z,112
2017-08-30T04:50:31.347Z,120
2017-08-30T04:51:11.777Z,128
2017-08-30T04:51:52.155Z,136
2017-08-30T04:52:32.578Z,140
2017-08-30T04:53:12.993Z,148
2017-08-30T04:53:53.337Z,152
2017-08-30T04:54:33.821Z,160
2017-08-30T04:55:14.246Z,156
2017-08-30T04:55:54.599Z,156
2017-08-30T04:56:35.253Z,160
2017-08-30T04:57:15.680Z,156
2017-08-30T04:58:01.660Z,152
2017-08-30T05:00:11.421Z,136
2017-08-30T05:01:12.131Z,132
2017-08-30T05:02:03.464Z,132
2017-08-30T05:02:44.457Z,132
2017-08-30T05:03:25.184Z,128
2017-08-30T05:04:06.038Z,132
2017-08-30T05:04:48.453Z,136
2017-08-30T05:05:27.767Z,136
2017-08-30T05:06:08.255Z,136
2017-08-30T05:06:49.087Z,140
2017-08-30T05:07:30.859Z,144
2017-08-30T05:08:11.843Z,152
2017-08-30T05:08:52.440Z,156
2017-08-30T05:09:33.480Z,164
2017-08-30T05:10:14.447Z,172
2017-08-30T05:10:55.211Z,176
2017-08-30T05:11:36.444Z,188
2017-08-30T05:12:17.842Z,196
2017-08-30T05:12:58.454Z,200
2017-08-30T05:13:39.813Z,212
2017-08-30T05:14:20.169Z,216
2017-08-30T05:15:01.818Z,224
2017-08-30T05:15:42.794Z,232
2017-08-30T05:16:22.915Z,248
2017-08-30T05:17:03.710Z,252
2017-08-30T05:17:45.324Z,264
2017-08-30T05:18:25.970Z,276
2017-08-30T05:19:07.382Z,288
2017-08-30T05:19:47.325Z,304
2017-08-30T05:20:28.784Z,320
2017-08-30T05:21:10.527Z,320
2017-08-30T05:21:51.558Z,336
2017-08-30T05:22:32.755Z,344
2017-08-30T05:23:13.574Z,328
2017-08-30T05:23:55.511Z,344
2017-08-30T05:24:36.420Z,408
2017-08-30T05:25:16.844Z,464
2017-08-30T05:25:57.143Z,544
2017-08-30T05:26:39.572Z,556
2017-08-30T05:27:20.385Z,544
2017-08-30T05:28:02.486Z,628
2017-08-30T05:28:42.351Z,708
2017-08-30T05:29:23.822Z,760
2017-08-30T05:30:04.376Z,740
2017-08-30T05:30:45.628Z,580
2017-08-30T05:31:25.996Z,536
2017-08-30T05:32:08.843Z,568
2017-08-30T05:32:49.899Z,648
2017-08-30T05:33:31.486Z,740
2017-08-30T05:34:11.611Z,836
2017-08-30T05:34:51.932Z,928
2017-08-30T05:35:32.344Z,1016
2017-08-30T05:36:13.837Z,1124
2017-08-30T05:36:54.827Z,1232
2017-08-30T05:37:35.348Z,1324
2017-08-30T05:38:16.355Z,1412
2017-08-30T05:38:57.821Z,1512
2017-08-30T05:39:38.829Z,1616
2017-08-30T05:40:19.842Z,1716
2017-08-30T05:41:00.822Z,1812
2017-08-30T05:41:41.842Z,1916
2017-08-30T05:42:22.142Z,2020
2017-08-30T05:43:03.833Z,2132
2017-08-30T05:43:44.334Z,2268
2017-08-30T05:44:25.038Z,2484
2017-08-30T05:45:05.901Z,3052
2017-08-30T05:45:47.472Z,3644
2017-08-30T05:46:27.714Z,3864
2017-08-30T05:49:14.560Z,4572
2017-08-30T05:50:20.232Z,4616
2017-08-30T05:51:21.246Z,4576
2017-08-30T05:52:16.089Z,4952
2017-08-30T05:52:56.521Z,5180
2017-08-30T05:53:36.943Z,5284
2017-08-30T05:54:17.458Z,5416
2017-08-30T05:54:57.870Z,5552
2017-08-30T05:55:38.662Z,5828
2017-08-30T05:56:19.047Z,5984
2017-08-30T05:56:59.598Z,6196
2017-08-30T05:57:39.938Z,5824
2017-08-30T05:58:20.341Z,5420
2017-08-30T05:59:00.764Z,5984
2017-08-30T05:59:41.183Z,6660
2017-08-30T06:00:21.660Z,7504
2017-08-30T06:01:02.048Z,7168
2017-08-30T06:01:42.576Z,7624
2017-08-30T06:02:23.053Z,7716
2017-08-30T06:03:03.381Z,7744
2017-08-30T06:03:44.031Z,7936
2017-08-30T06:04:24.540Z,7720
2017-08-30T06:05:04.967Z,7736
2017-08-30T06:05:45.347Z,7732
2017-08-30T06:06:25.861Z,7764
2017-08-30T06:07:06.368Z,7736
2017-08-30T06:07:46.775Z,8156
2017-08-30T06:08:27.236Z,7408
2017-08-30T06:09:08.054Z,7048
2017-08-30T06:09:48.481Z,7504
2017-08-30T06:10:28.873Z,6460
2017-08-30T06:11:09.628Z,6060
2017-08-30T06:11:49.935Z,6564
2017-08-30T06:12:30.464Z,5272
2017-08-30T06:13:10.786Z,4288
2017-08-30T06:13:51.337Z,3700
2017-08-30T06:14:31.993Z,3084
2017-08-30T06:15:12.515Z,3008
2017-08-30T06:15:52.984Z,2892
2017-08-30T06:16:33.391Z,2736
2017-08-30T06:17:14.025Z,2452
2017-08-30T06:17:54.832Z,2224
2017-08-30T06:18:35.293Z,2068
2017-08-30T06:19:15.735Z,1924
2017-08-30T06:19:56.222Z,1884
2017-08-30T06:20:36.685Z,1940
2017-08-30T06:21:23.837Z,2044
2017-08-30T06:22:04.134Z,2136
2017-08-30T06:22:44.846Z,2184
2017-08-30T06:23:25.590Z,2220
2017-08-30T06:24:06.102Z,2260
2017-08-30T06:24:46.719Z,2364
2017-08-30T06:25:27.024Z,2448
2017-08-30T06:26:07.400Z,2468
2017-08-30T06:26:47.837Z,2496
2017-08-30T06:27:28.504Z,2388
2017-08-30T06:28:08.864Z,2268
2017-08-30T06:28:50.638Z,2004
2017-08-30T06:29:31.041Z,1820
2017-08-30T06:30:11.394Z,1716
2017-08-30T06:30:51.999Z,1664
2017-08-30T06:31:32.301Z,1664
2017-08-30T06:32:12.700Z,1684
2017-08-30T06:32:53.134Z,1732
2017-08-30T06:33:33.636Z,1796
2017-08-30T06:34:14.085Z,1836
2017-08-30T06:34:54.550Z,1844
2017-08-30T06:35:35.002Z,1860
2017-08-30T06:36:15.636Z,1844
2017-08-30T06:36:56.129Z,1780
2017-08-30T06:37:36.528Z,1712
2017-08-30T06:38:16.936Z,1704
2017-08-30T06:38:57.476Z,1684
2017-08-30T06:39:39.826Z,1656
2017-08-30T06:40:20.662Z,1596
2017-08-30T06:41:01.127Z,1448
2017-08-30T06:41:41.471Z,1328
2017-08-30T06:42:24.287Z,1240
2017-08-30T06:43:02.508Z,1168
2017-08-30T06:43:42.910Z,1104
2017-08-30T06:44:23.264Z,1052
2017-08-30T06:45:03.694Z,1020
2017-08-30T06:45:44.177Z,984
2017-08-30T06:46:26.193Z,972
2017-08-30T06:53:22.877Z,868
2017-08-30T06:54:03.321Z,880
2017-08-30T06:54:43.752Z,884
2017-08-30T06:55:24.359Z,892
2017-08-30T06:56:04.773Z,880
2017-08-30T06:56:45.492Z,872
2017-08-30T06:57:26.277Z,848
2017-08-30T06:58:06.628Z,828
2017-08-30T06:58:47.052Z,796
2017-08-30T06:59:27.461Z,768
2017-08-30T07:00:09.243Z,740
2017-08-30T07:11:30.182Z,576
2017-08-30T07:12:10.667Z,592
2017-08-30T07:12:52.053Z,612
2017-08-30T07:13:32.613Z,704
2017-08-30T07:14:13.171Z,776
2017-08-30T07:14:53.585Z,792
2017-08-30T07:15:34.015Z,792
2017-08-30T07:16:14.428Z,848
2017-08-30T07:16:54.858Z,868
2017-08-30T07:17:35.311Z,888
2017-08-30T07:18:15.709Z,868
2017-08-30T07:18:56.191Z,796
2017-08-30T07:19:37.023Z,776
2017-08-30T07:20:33.177Z,872
2017-08-30T07:21:13.606Z,968
2017-08-30T07:21:54.107Z,1092
2017-08-30T07:22:34.673Z,1236
2017-08-30T07:23:21.863Z,1228
2017-08-30T07:24:02.285Z,1800
2017-08-30T07:24:42.734Z,1476
2017-08-30T07:25:23.874Z,1372
2017-08-30T07:26:04.425Z,1288
2017-08-30T07:26:44.967Z,1320
2017-08-30T07:28:47.015Z,1624
2017-08-30T07:29:27.299Z,1980
2017-08-30T07:30:07.827Z,2008
2017-08-30T07:30:48.234Z,1904
2017-08-30T07:31:28.990Z,1784
2017-08-30T07:32:09.468Z,1704
2017-08-30T07:32:49.991Z,1748
2017-08-30T07:33:30.424Z,1760
2017-08-30T07:34:11.019Z,1820
2017-08-30T07:34:51.471Z,1860
2017-08-30T07:35:32.305Z,1772
2017-08-30T07:36:12.762Z,1688
2017-08-30T07:36:53.220Z,1568
2017-08-30T07:37:34.575Z,1616
2017-08-30T07:38:14.852Z,1648
2017-08-30T07:38:55.953Z,1684
2017-08-30T07:39:36.542Z,1696
2017-08-30T07:40:16.998Z,1668
2017-08-30T07:40:57.439Z,1616
2017-08-30T07:41:38.648Z,1600
2017-08-30T07:42:20.571Z,1592
2017-08-30T07:43:01.116Z,1552
2017-08-30T07:43:41.490Z,1544
2017-08-30T07:44:21.828Z,1524
2017-08-30T07:45:02.265Z,1472
2017-08-30T07:45:42.834Z,1424
2017-08-30T07:46:24.384Z,1408
2017-08-30T07:47:05.137Z,1408
2017-08-30T07:47:45.538Z,1400
2017-08-30T07:50:35.092Z,1392
2017-08-30T07:51:37.671Z,1340
2017-08-30T07:52:34.446Z,1272
2017-08-30T07:53:34.530Z,1232
2017-08-30T07:54:34.686Z,1208
2017-08-30T07:55:34.748Z,1200
2017-08-30T07:58:29.538Z,1236
2017-08-30T07:59:24.920Z,1236
2017-08-30T08:00:23.703Z,1236
2017-08-30T08:01:21.431Z,1268
2017-08-30T08:02:20.906Z,1304
2017-08-30T08:03:21.774Z,1308
2017-08-30T08:04:24.529Z,1280
2017-08-30T08:05:20.080Z,1244
2017-08-30T08:06:29.481Z,1172
2017-08-30T08:07:33.403Z,1068
2017-08-30T08:10:55.685Z,940
2017-08-30T08:11:36.075Z,896
2017-08-30T08:12:16.610Z,860
2017-08-30T08:12:57.053Z,836
2017-08-30T08:13:37.657Z,816
2017-08-30T08:14:18.461Z,800
2017-08-30T08:14:58.968Z,780
2017-08-30T08:15:39.431Z,732
2017-08-30T08:16:19.905Z,696
2017-08-30T08:17:00.431Z,684
2017-08-30T08:17:40.913Z,676
2017-08-30T08:18:23.180Z,700
2017-08-30T08:19:03.442Z,744
2017-08-30T08:19:43.863Z,768
2017-08-30T08:20:25.597Z,744
2017-08-30T08:21:06.146Z,724
2017-08-30T08:21:46.473Z,704
2017-08-30T08:22:26.908Z,648
2017-08-30T08:23:07.526Z,616
2017-08-30T08:23:48.190Z,600
2017-08-30T08:24:28.720Z,580
2017-08-30T08:25:09.312Z,556
2017-08-30T08:25:49.768Z,524
2017-08-30T08:26:30.585Z,488
2017-08-30T08:27:11.493Z,460
2017-08-30T08:27:51.886Z,448
2017-08-30T08:28:32.242Z,448
2017-08-30T08:29:12.687Z,444
2017-08-30T08:29:53.110Z,424
2017-08-30T08:30:33.669Z,404
2017-08-30T08:31:14.069Z,396
2017-08-30T08:31:54.563Z,388
2017-08-30T08:32:34.953Z,388
2017-08-30T08:33:15.376Z,396
2017-08-30T08:33:55.810Z,404
2017-08-30T08:34:36.189Z,412
2017-08-30T08:35:16.785Z,420
2017-08-30T08:35:57.311Z,420
2017-08-30T08:36:37.820Z,412
2017-08-30T08:37:18.683Z,400
2017-08-30T08:38:01.932Z,420
2017-08-30T08:38:46.800Z,452
2017-08-30T08:39:28.276Z,516
2017-08-30T08:40:08.371Z,576
2017-08-30T08:40:48.821Z,688
2017-08-30T08:41:32.625Z,836
2017-08-30T08:42:15.565Z,1000
2017-08-30T08:42:59.098Z,1096
2017-08-30T08:43:39.623Z,1116
2017-08-30T08:44:20.308Z,1168
2017-08-30T08:45:00.857Z,1244
2017-08-30T08:45:41.301Z,1304
2017-08-30T08:46:23.450Z,1376
2017-08-30T08:47:03.841Z,1632
2017-08-30T08:47:44.733Z,1792
2017-08-30T08:48:25.652Z,1876
2017-08-30T08:49:06.122Z,1892
2017-08-30T08:49:46.604Z,1932
2017-08-30T08:50:27.155Z,2192
2017-08-30T08:51:07.603Z,2424
2017-08-30T08:51:47.856Z,2560
2017-08-30T08:52:28.347Z,2716
2017-08-30T08:53:08.852Z,2752
2017-08-30T08:53:49.447Z,2992
2017-08-30T08:54:30.488Z,3196
2017-08-30T08:55:11.031Z,3256
2017-08-30T08:55:51.546Z,3520
2017-08-30T08:56:31.919Z,3428
2017-08-30T08:57:12.510Z,3496
2017-08-30T08:57:53.693Z,3420
2017-08-30T08:58:34.140Z,3400
2017-08-30T08:59:15.563Z,3388
2017-08-30T08:59:56.471Z,3400
2017-08-30T09:00:36.960Z,3492
2017-08-30T09:03:14.870Z,3372
2017-08-30T09:04:18.092Z,3468
2017-08-30T09:05:19.801Z,3292
2017-08-30T09:06:19.698Z,3168
2017-08-30T09:07:10.511Z,3072
2017-08-30T09:07:50.916Z,3000
2017-08-30T09:08:31.329Z,2960
2017-08-30T09:09:11.849Z,2848
2017-08-30T09:09:52.222Z,2860
2017-08-30T09:10:32.668Z,2892
2017-08-30T09:11:13.118Z,2724
2017-08-30T09:11:53.506Z,2708
2017-08-30T09:12:34.050Z,2792
2017-08-30T09:13:14.538Z,2844
2017-08-30T09:13:55.011Z,2904
2017-08-30T09:14:35.440Z,2960
2017-08-30T09:15:15.876Z,2924
2017-08-30T09:15:56.419Z,2896
2017-08-30T09:16:36.835Z,2948
2017-08-30T09:17:17.268Z,2992
2017-08-30T09:17:57.707Z,3000
2017-08-30T09:18:38.094Z,2844
2017-08-30T09:19:18.507Z,2696
2017-08-30T09:19:58.938Z,2612
2017-08-30T09:20:39.536Z,2620
2017-08-30T09:21:20.038Z,2576
2017-08-30T09:22:00.470Z,2564
2017-08-30T09:22:40.834Z,2860
2017-08-30T09:23:21.284Z,2792
2017-08-30T09:24:01.732Z,2968
2017-08-30T09:24:42.217Z,2980
2017-08-30T09:25:22.721Z,3100
2017-08-30T09:26:03.171Z,3088
2017-08-30T09:26:43.556Z,2988
2017-08-30T09:27:24.037Z,2788
2017-08-30T09:28:04.498Z,2472
2017-08-30T09:28:47.314Z,2276
2017-08-30T09:29:27.772Z,2120
2017-08-30T09:30:08.219Z,2020
2017-08-30T09:30:48.732Z,1976
2017-08-30T09:31:29.265Z,1952
2017-08-30T09:32:09.917Z,2028
2017-08-30T09:32:50.500Z,2064
2017-08-30T09:33:30.990Z,2060
2017-08-30T09:34:11.435Z,1952
2017-08-30T09:34:51.775Z,1800
2017-08-30T09:35:32.267Z,1680
2017-08-30T09:36:12.819Z,1628
2017-08-30T09:36:53.234Z,1652
2017-08-30T09:37:34.167Z,1668
2017-08-30T09:38:14.634Z,1624
2017-08-30T09:38:55.163Z,1528
2017-08-30T09:39:35.512Z,1432
2017-08-30T09:40:16.054Z,1440
2017-08-30T09:40:56.465Z,1420
2017-08-30T09:41:37.093Z,1368
2017-08-30T09:42:17.561Z,1420
2017-08-30T09:42:57.954Z,1452
2017-08-30T09:43:38.425Z,1452
2017-08-30T09:44:18.896Z,1432
2017-08-30T09:44:59.208Z,1408
2017-08-30T09:45:39.845Z,1396
2017-08-30T09:46:20.290Z,1424
2017-08-30T09:47:00.955Z,1484
2017-08-30T09:47:41.492Z,1556
2017-08-30T09:48:21.833Z,1604
2017-08-30T09:49:02.397Z,1644
2017-08-30T09:49:42.907Z,1664
2017-08-30T09:50:23.324Z,1708
2017-08-30T09:51:03.670Z,1716
2017-08-30T09:51:44.086Z,1720
2017-08-30T09:52:24.496Z,1684
2017-08-30T09:53:04.893Z,1628
2017-08-30T09:53:45.286Z,1588
2017-08-30T09:54:25.893Z,1596
2017-08-30T09:55:06.357Z,1696
2017-08-30T09:55:46.694Z,1852
2017-08-30T09:56:27.205Z,2048
2017-08-30T09:57:07.692Z,2100
2017-08-30T09:57:48.123Z,2108
2017-08-30T09:58:28.601Z,2096
2017-08-30T09:59:08.952Z,2044
2017-08-30T09:59:49.482Z,2024
2017-08-30T10:00:30.010Z,2136
2017-08-30T10:01:10.350Z,2272
2017-08-30T10:01:50.761Z,2696
2017-08-30T10:02:31.304Z,2516
2017-08-30T10:03:11.907Z,2432
2017-08-30T10:03:52.438Z,2616
2017-08-30T10:04:33.119Z,2584
2017-08-30T10:05:29.571Z,2364
2017-08-30T10:06:10.011Z,2192
2017-08-30T10:06:50.708Z,2140
2017-08-30T10:07:31.257Z,2132
2017-08-30T10:08:11.695Z,2124
2017-08-30T10:08:52.105Z,2224
2017-08-30T10:09:32.526Z,2360
2017-08-30T10:10:12.979Z,2416
2017-08-30T10:10:54.305Z,2548
2017-08-30T10:11:34.724Z,2548
2017-08-30T10:12:15.225Z,2752
2017-08-30T10:12:55.726Z,2732
2017-08-30T10:13:36.151Z,2716
2017-08-30T10:14:16.672Z,2736
2017-08-30T10:14:57.185Z,2780
2017-08-30T10:15:37.677Z,2844
2017-08-30T10:16:18.197Z,2892
2017-08-30T10:16:58.671Z,2868
2017-08-30T10:17:39.411Z,2828
2017-08-30T10:18:19.987Z,2848
2017-08-30T10:21:11.396Z,2720
2017-08-30T10:22:12.669Z,2724
2017-08-30T10:23:14.862Z,2840
2017-08-30T10:24:17.759Z,2968
2017-08-30T10:25:19.114Z,2944
2017-08-30T10:26:25.002Z,2956
2017-08-30T10:27:27.417Z,2944
2017-08-30T10:28:32.231Z,3080
2017-08-30T10:29:37.469Z,3048
2017-08-30T10:30:38.351Z,3076
2017-08-30T10:33:46.964Z,2972
2017-08-30T10:34:49.381Z,2988
2017-08-30T10:35:50.508Z,3060
2017-08-30T10:36:55.528Z,3104
2017-08-30T10:39:05.789Z,3112
2017-08-30T10:40:04.048Z,3112